sensor_id;sensor_type;location;lat;lon;timestamp;P1;durP1;ratioP1;P2;durP2;ratioP2
21743;SDS011;11034;48.556;9.342;2024-03-07T00:00:07;320.15;;;75.70;;
21743;SDS011;11034;48.556;9.342;2024-03-07T00:02:43;291.98;;;75.07;;
21743;SDS011;11034;48.556;9.342;2024-03-07T00:05:12;274.20;;;70.82;;
21743;SDS011;11034;48.556;9.342;2024-03-07T00:07:40;282.10;;;71.78;;
21743;SDS011;11034;48.556;9.342;2024-03-07T00:10:08;275.70;;;70.90;;
21743;SDS011;11034;48.556;9.342;2024-03-07T00:12:39;341.13;;;74.35;;
21743;SDS011;11034;48.556;9.342;2024-03-07T00:15:08;273.17;;;72.75;;
21743;SDS011;11034;48.556;9.342;2024-03-07T00:17:37;254.57;;;71.97;;
21743;SDS011;11034;48.556;9.342;2024-03-07T00:20:06;241.38;;;66.90;;
21743;SDS011;11034;48.556;9.342;2024-03-07T00:22:40;256.58;;;68.72;;
21743;SDS011;11034;48.556;9.342;2024-03-07T00:25:09;281.67;;;70.90;;
21743;SDS011;11034;48.556;9.342;2024-03-07T00:27:42;279.80;;;71.53;;
21743;SDS011;11034;48.556;9.342;2024-03-07T00:30:12;294.45;;;74.10;;
21743;SDS011;11034;48.556;9.342;2024-03-07T00:32:45;247.48;;;67.88;;
21743;SDS011;11034;48.556;9.342;2024-03-07T00:35:14;241.10;;;66.72;;
21743;SDS011;11034;48.556;9.342;2024-03-07T00:37:42;229.13;;;67.13;;
21743;SDS011;11034;48.556;9.342;2024-03-07T00:40:11;216.48;;;63.20;;
21743;SDS011;11034;48.556;9.342;2024-03-07T00:42:39;198.88;;;61.38;;
21743;SDS011;11034;48.556;9.342;2024-03-07T00:45:09;207.07;;;61.15;;
21743;SDS011;11034;48.556;9.342;2024-03-07T00:47:38;170.43;;;56.83;;
21743;SDS011;11034;48.556;9.342;2024-03-07T00:50:06;171.77;;;56.95;;
21743;SDS011;11034;48.556;9.342;2024-03-07T00:52:36;158.15;;;55.55;;
21743;SDS011;11034;48.556;9.342;2024-03-07T00:55:05;156.45;;;55.25;;
21743;SDS011;11034;48.556;9.342;2024-03-07T00:57:35;164.77;;;55.42;;
21743;SDS011;11034;48.556;9.342;2024-03-07T01:00:04;153.45;;;53.60;;
21743;SDS011;11034;48.556;9.342;2024-03-07T01:02:39;141.18;;;52.83;;
21743;SDS011;11034;48.556;9.342;2024-03-07T01:05:10;137.38;;;50.97;;
21743;SDS011;11034;48.556;9.342;2024-03-07T01:07:39;135.52;;;49.58;;
21743;SDS011;11034;48.556;9.342;2024-03-07T01:10:09;136.82;;;50.88;;
21743;SDS011;11034;48.556;9.342;2024-03-07T01:12:39;135.60;;;50.15;;
21743;SDS011;11034;48.556;9.342;2024-03-07T01:15:09;130.40;;;49.10;;
21743;SDS011;11034;48.556;9.342;2024-03-07T01:17:37;130.48;;;48.78;;
21743;SDS011;11034;48.556;9.342;2024-03-07T01:20:08;129.25;;;49.75;;
21743;SDS011;11034;48.556;9.342;2024-03-07T01:22:38;113.53;;;46.33;;
21743;SDS011;11034;48.556;9.342;2024-03-07T01:25:06;121.82;;;49.22;;
21743;SDS011;11034;48.556;9.342;2024-03-07T01:27:34;119.63;;;48.13;;
21743;SDS011;11034;48.556;9.342;2024-03-07T01:30:02;121.68;;;49.30;;
21743;SDS011;11034;48.556;9.342;2024-03-07T01:32:30;120.07;;;50.00;;
21743;SDS011;11034;48.556;9.342;2024-03-07T01:35:00;120.47;;;49.70;;
21743;SDS011;11034;48.556;9.342;2024-03-07T01:37:29;129.00;;;49.00;;
21743;SDS011;11034;48.556;9.342;2024-03-07T01:39:57;121.35;;;49.25;;
21743;SDS011;11034;48.556;9.342;2024-03-07T01:42:25;131.95;;;50.00;;
21743;SDS011;11034;48.556;9.342;2024-03-07T01:44:53;137.90;;;52.20;;
21743;SDS011;11034;48.556;9.342;2024-03-07T01:47:21;130.68;;;50.28;;
21743;SDS011;11034;48.556;9.342;2024-03-07T01:49:49;123.30;;;49.70;;
21743;SDS011;11034;48.556;9.342;2024-03-07T01:52:18;127.05;;;50.55;;
21743;SDS011;11034;48.556;9.342;2024-03-07T01:54:48;132.02;;;52.88;;
21743;SDS011;11034;48.556;9.342;2024-03-07T01:57:16;139.95;;;52.67;;
21743;SDS011;11034;48.556;9.342;2024-03-07T01:59:46;134.30;;;52.22;;
21743;SDS011;11034;48.556;9.342;2024-03-07T02:02:17;142.30;;;52.08;;
21743;SDS011;11034;48.556;9.342;2024-03-07T02:04:45;139.00;;;53.35;;
21743;SDS011;11034;48.556;9.342;2024-03-07T02:07:13;138.15;;;52.40;;
21743;SDS011;11034;48.556;9.342;2024-03-07T02:09:43;165.82;;;53.33;;
21743;SDS011;11034;48.556;9.342;2024-03-07T02:12:11;150.80;;;53.63;;
21743;SDS011;11034;48.556;9.342;2024-03-07T02:14:39;150.20;;;53.63;;
21743;SDS011;11034;48.556;9.342;2024-03-07T02:17:08;162.38;;;55.13;;
21743;SDS011;11034;48.556;9.342;2024-03-07T02:19:36;155.05;;;54.35;;
21743;SDS011;11034;48.556;9.342;2024-03-07T02:22:05;177.95;;;56.55;;
21743;SDS011;11034;48.556;9.342;2024-03-07T02:24:33;160.35;;;54.55;;
21743;SDS011;11034;48.556;9.342;2024-03-07T02:27:01;170.13;;;57.22;;
21743;SDS011;11034;48.556;9.342;2024-03-07T02:29:30;170.55;;;56.97;;
21743;SDS011;11034;48.556;9.342;2024-03-07T02:31:58;171.85;;;55.78;;
21743;SDS011;11034;48.556;9.342;2024-03-07T02:34:26;155.13;;;53.95;;
21743;SDS011;11034;48.556;9.342;2024-03-07T02:36:54;177.13;;;57.03;;
21743;SDS011;11034;48.556;9.342;2024-03-07T02:39:24;163.45;;;56.65;;
21743;SDS011;11034;48.556;9.342;2024-03-07T02:41:52;169.43;;;56.75;;
21743;SDS011;11034;48.556;9.342;2024-03-07T02:44:20;158.45;;;57.22;;
21743;SDS011;11034;48.556;9.342;2024-03-07T02:46:48;155.15;;;56.10;;
21743;SDS011;11034;48.556;9.342;2024-03-07T02:49:16;163.00;;;55.13;;
21743;SDS011;11034;48.556;9.342;2024-03-07T02:51:45;165.02;;;57.85;;
21743;SDS011;11034;48.556;9.342;2024-03-07T02:54:13;152.80;;;55.33;;
21743;SDS011;11034;48.556;9.342;2024-03-07T02:56:42;162.05;;;56.10;;
21743;SDS011;11034;48.556;9.342;2024-03-07T02:59:12;159.75;;;55.70;;
21743;SDS011;11034;48.556;9.342;2024-03-07T03:01:41;166.35;;;55.97;;
21743;SDS011;11034;48.556;9.342;2024-03-07T03:04:09;160.48;;;56.97;;
21743;SDS011;11034;48.556;9.342;2024-03-07T03:06:37;177.88;;;59.47;;
21743;SDS011;11034;48.556;9.342;2024-03-07T03:09:05;179.27;;;58.63;;
21743;SDS011;11034;48.556;9.342;2024-03-07T03:11:36;168.48;;;56.75;;
21743;SDS011;11034;48.556;9.342;2024-03-07T03:14:05;154.23;;;56.53;;
21743;SDS011;11034;48.556;9.342;2024-03-07T03:16:33;162.88;;;56.78;;
21743;SDS011;11034;48.556;9.342;2024-03-07T03:19:13;151.15;;;54.22;;
21743;SDS011;11034;48.556;9.342;2024-03-07T03:21:41;149.80;;;54.58;;
21743;SDS011;11034;48.556;9.342;2024-03-07T03:24:10;159.27;;;53.45;;
21743;SDS011;11034;48.556;9.342;2024-03-07T03:26:38;162.63;;;56.67;;
21743;SDS011;11034;48.556;9.342;2024-03-07T03:29:08;152.40;;;58.17;;
21743;SDS011;11034;48.556;9.342;2024-03-07T03:31:38;156.88;;;56.60;;
21743;SDS011;11034;48.556;9.342;2024-03-07T03:34:06;157.40;;;56.63;;
21743;SDS011;11034;48.556;9.342;2024-03-07T03:36:36;144.30;;;55.55;;
21743;SDS011;11034;48.556;9.342;2024-03-07T03:39:04;144.43;;;56.72;;
21743;SDS011;11034;48.556;9.342;2024-03-07T03:41:34;145.55;;;55.55;;
21743;SDS011;11034;48.556;9.342;2024-03-07T03:44:02;155.77;;;56.38;;
21743;SDS011;11034;48.556;9.342;2024-03-07T03:46:31;163.80;;;58.72;;
21743;SDS011;11034;48.556;9.342;2024-03-07T03:48:59;154.23;;;58.83;;
21743;SDS011;11034;48.556;9.342;2024-03-07T03:51:27;153.43;;;57.72;;
21743;SDS011;11034;48.556;9.342;2024-03-07T03:53:56;143.05;;;55.53;;
21743;SDS011;11034;48.556;9.342;2024-03-07T03:56:25;149.70;;;56.92;;
21743;SDS011;11034;48.556;9.342;2024-03-07T03:58:53;134.77;;;55.90;;
21743;SDS011;11034;48.556;9.342;2024-03-07T04:01:21;132.95;;;55.20;;
21743;SDS011;11034;48.556;9.342;2024-03-07T04:03:51;141.73;;;56.88;;
21743;SDS011;11034;48.556;9.342;2024-03-07T04:06:19;133.02;;;53.58;;
21743;SDS011;11034;48.556;9.342;2024-03-07T04:08:48;131.18;;;54.10;;
21743;SDS011;11034;48.556;9.342;2024-03-07T04:11:16;129.50;;;55.28;;
21743;SDS011;11034;48.556;9.342;2024-03-07T04:13:44;132.32;;;55.83;;
21743;SDS011;11034;48.556;9.342;2024-03-07T04:16:14;134.82;;;54.83;;
21743;SDS011;11034;48.556;9.342;2024-03-07T04:18:42;133.07;;;56.40;;
21743;SDS011;11034;48.556;9.342;2024-03-07T04:21:11;127.22;;;54.42;;
21743;SDS011;11034;48.556;9.342;2024-03-07T04:23:39;126.97;;;53.20;;
21743;SDS011;11034;48.556;9.342;2024-03-07T04:26:08;134.45;;;54.78;;
21743;SDS011;11034;48.556;9.342;2024-03-07T04:28:36;129.90;;;56.05;;
21743;SDS011;11034;48.556;9.342;2024-03-07T04:31:04;137.80;;;56.17;;
21743;SDS011;11034;48.556;9.342;2024-03-07T04:33:32;136.45;;;56.90;;
21743;SDS011;11034;48.556;9.342;2024-03-07T04:36:00;137.30;;;55.90;;
21743;SDS011;11034;48.556;9.342;2024-03-07T04:38:30;137.27;;;55.60;;
21743;SDS011;11034;48.556;9.342;2024-03-07T04:40:58;131.40;;;56.63;;
21743;SDS011;11034;48.556;9.342;2024-03-07T04:43:27;133.82;;;57.10;;
21743;SDS011;11034;48.556;9.342;2024-03-07T04:45:55;132.52;;;55.97;;
21743;SDS011;11034;48.556;9.342;2024-03-07T04:48:23;122.05;;;54.35;;
21743;SDS011;11034;48.556;9.342;2024-03-07T04:50:51;121.38;;;54.22;;
21743;SDS011;11034;48.556;9.342;2024-03-07T04:53:19;129.93;;;54.78;;
21743;SDS011;11034;48.556;9.342;2024-03-07T04:55:49;130.25;;;55.42;;
21743;SDS011;11034;48.556;9.342;2024-03-07T04:58:17;138.80;;;57.83;;
21743;SDS011;11034;48.556;9.342;2024-03-07T05:00:45;134.85;;;56.45;;
21743;SDS011;11034;48.556;9.342;2024-03-07T05:03:13;135.70;;;56.10;;
21743;SDS011;11034;48.556;9.342;2024-03-07T05:05:41;125.20;;;55.30;;
21743;SDS011;11034;48.556;9.342;2024-03-07T05:08:10;127.55;;;56.17;;
21743;SDS011;11034;48.556;9.342;2024-03-07T05:10:38;133.48;;;55.25;;
21743;SDS011;11034;48.556;9.342;2024-03-07T05:13:09;128.40;;;55.20;;
21743;SDS011;11034;48.556;9.342;2024-03-07T05:15:37;137.45;;;55.90;;
21743;SDS011;11034;48.556;9.342;2024-03-07T05:18:06;144.18;;;56.78;;
21743;SDS011;11034;48.556;9.342;2024-03-07T05:20:34;136.82;;;56.47;;
21743;SDS011;11034;48.556;9.342;2024-03-07T05:23:03;142.27;;;56.15;;
21743;SDS011;11034;48.556;9.342;2024-03-07T05:25:32;153.73;;;59.20;;
21743;SDS011;11034;48.556;9.342;2024-03-07T05:28:00;146.43;;;59.78;;
21743;SDS011;11034;48.556;9.342;2024-03-07T05:30:30;155.70;;;60.95;;
21743;SDS011;11034;48.556;9.342;2024-03-07T05:32:59;165.52;;;60.63;;
21743;SDS011;11034;48.556;9.342;2024-03-07T05:35:29;159.82;;;59.15;;
21743;SDS011;11034;48.556;9.342;2024-03-07T05:37:58;175.57;;;61.05;;
21743;SDS011;11034;48.556;9.342;2024-03-07T05:40:26;199.23;;;64.80;;
21743;SDS011;11034;48.556;9.342;2024-03-07T05:42:54;188.85;;;63.88;;
21743;SDS011;11034;48.556;9.342;2024-03-07T05:45:23;240.50;;;66.97;;
21743;SDS011;11034;48.556;9.342;2024-03-07T05:47:52;201.68;;;65.70;;
21743;SDS011;11034;48.556;9.342;2024-03-07T05:50:20;191.13;;;64.38;;
21743;SDS011;11034;48.556;9.342;2024-03-07T05:52:49;213.20;;;66.38;;
21743;SDS011;11034;48.556;9.342;2024-03-07T05:55:17;223.57;;;68.63;;
21743;SDS011;11034;48.556;9.342;2024-03-07T05:57:47;203.80;;;67.75;;
21743;SDS011;11034;48.556;9.342;2024-03-07T06:00:16;194.25;;;65.85;;
21743;SDS011;11034;48.556;9.342;2024-03-07T06:02:55;220.20;;;70.18;;
21743;SDS011;11034;48.556;9.342;2024-03-07T06:05:24;181.23;;;63.20;;
21743;SDS011;11034;48.556;9.342;2024-03-07T06:07:53;173.30;;;63.90;;
21743;SDS011;11034;48.556;9.342;2024-03-07T06:10:23;179.32;;;64.35;;
21743;SDS011;11034;48.556;9.342;2024-03-07T06:12:51;172.70;;;61.53;;
21743;SDS011;11034;48.556;9.342;2024-03-07T06:15:35;180.00;;;65.72;;
21743;SDS011;11034;48.556;9.342;2024-03-07T06:18:06;187.63;;;64.57;;
21743;SDS011;11034;48.556;9.342;2024-03-07T06:20:37;182.35;;;64.00;;
21743;SDS011;11034;48.556;9.342;2024-03-07T06:23:07;199.77;;;64.55;;
21743;SDS011;11034;48.556;9.342;2024-03-07T06:25:38;176.98;;;64.95;;
21743;SDS011;11034;48.556;9.342;2024-03-07T06:28:14;171.18;;;62.97;;
21743;SDS011;11034;48.556;9.342;2024-03-07T06:30:42;167.23;;;63.92;;
21743;SDS011;11034;48.556;9.342;2024-03-07T06:33:14;168.77;;;64.22;;
21743;SDS011;11034;48.556;9.342;2024-03-07T06:35:47;179.77;;;64.32;;
21743;SDS011;11034;48.556;9.342;2024-03-07T06:38:15;180.60;;;65.05;;
21743;SDS011;11034;48.556;9.342;2024-03-07T06:40:43;179.10;;;66.63;;
21743;SDS011;11034;48.556;9.342;2024-03-07T06:43:12;180.45;;;64.90;;
21743;SDS011;11034;48.556;9.342;2024-03-07T06:45:40;176.05;;;62.17;;
21743;SDS011;11034;48.556;9.342;2024-03-07T06:48:09;192.88;;;67.78;;
21743;SDS011;11034;48.556;9.342;2024-03-07T06:50:38;190.02;;;67.70;;
21743;SDS011;11034;48.556;9.342;2024-03-07T06:53:07;178.10;;;66.10;;
21743;SDS011;11034;48.556;9.342;2024-03-07T06:55:35;175.70;;;65.00;;
21743;SDS011;11034;48.556;9.342;2024-03-07T06:58:04;168.95;;;65.00;;
21743;SDS011;11034;48.556;9.342;2024-03-07T07:00:33;163.85;;;61.20;;
21743;SDS011;11034;48.556;9.342;2024-03-07T07:03:04;164.32;;;61.70;;
21743;SDS011;11034;48.556;9.342;2024-03-07T07:05:33;158.13;;;63.08;;
21743;SDS011;11034;48.556;9.342;2024-03-07T07:08:04;163.68;;;61.13;;
21743;SDS011;11034;48.556;9.342;2024-03-07T07:10:33;168.73;;;61.90;;
21743;SDS011;11034;48.556;9.342;2024-03-07T07:13:02;162.95;;;62.53;;
21743;SDS011;11034;48.556;9.342;2024-03-07T07:15:31;164.13;;;61.78;;
21743;SDS011;11034;48.556;9.342;2024-03-07T07:18:00;165.82;;;62.60;;
21743;SDS011;11034;48.556;9.342;2024-03-07T07:20:29;165.90;;;63.03;;
21743;SDS011;11034;48.556;9.342;2024-03-07T07:22:58;168.63;;;62.97;;
21743;SDS011;11034;48.556;9.342;2024-03-07T07:25:30;154.70;;;61.42;;
21743;SDS011;11034;48.556;9.342;2024-03-07T07:27:58;159.52;;;61.50;;
21743;SDS011;11034;48.556;9.342;2024-03-07T07:30:26;185.93;;;69.75;;
21743;SDS011;11034;48.556;9.342;2024-03-07T07:32:54;200.40;;;64.93;;
21743;SDS011;11034;48.556;9.342;2024-03-07T07:35:23;174.70;;;62.45;;
21743;SDS011;11034;48.556;9.342;2024-03-07T07:37:51;177.27;;;63.95;;
21743;SDS011;11034;48.556;9.342;2024-03-07T07:40:22;175.95;;;63.58;;
21743;SDS011;11034;48.556;9.342;2024-03-07T07:42:55;178.43;;;65.95;;
21743;SDS011;11034;48.556;9.342;2024-03-07T07:45:24;181.40;;;65.72;;
21743;SDS011;11034;48.556;9.342;2024-03-07T07:47:53;182.73;;;64.45;;
21743;SDS011;11034;48.556;9.342;2024-03-07T07:50:22;187.13;;;65.43;;
21743;SDS011;11034;48.556;9.342;2024-03-07T07:52:52;193.65;;;65.75;;
21743;SDS011;11034;48.556;9.342;2024-03-07T07:55:21;201.13;;;68.97;;
21743;SDS011;11034;48.556;9.342;2024-03-07T07:57:51;182.10;;;65.57;;
21743;SDS011;11034;48.556;9.342;2024-03-07T08:00:22;175.02;;;64.55;;
21743;SDS011;11034;48.556;9.342;2024-03-07T08:02:52;179.18;;;66.82;;
21743;SDS011;11034;48.556;9.342;2024-03-07T08:05:23;181.73;;;65.70;;
21743;SDS011;11034;48.556;9.342;2024-03-07T08:07:52;164.25;;;63.03;;
21743;SDS011;11034;48.556;9.342;2024-03-07T08:10:21;162.30;;;64.57;;
21743;SDS011;11034;48.556;9.342;2024-03-07T08:12:52;157.77;;;60.45;;
21743;SDS011;11034;48.556;9.342;2024-03-07T08:15:22;152.18;;;59.80;;
21743;SDS011;11034;48.556;9.342;2024-03-07T08:17:52;141.15;;;58.90;;
21743;SDS011;11034;48.556;9.342;2024-03-07T08:20:21;132.60;;;54.20;;
21743;SDS011;11034;48.556;9.342;2024-03-07T08:22:52;118.00;;;51.63;;
21743;SDS011;11034;48.556;9.342;2024-03-07T08:25:22;114.50;;;50.33;;
21743;SDS011;11034;48.556;9.342;2024-03-07T08:27:52;113.20;;;50.03;;
21743;SDS011;11034;48.556;9.342;2024-03-07T08:30:22;106.25;;;47.40;;
21743;SDS011;11034;48.556;9.342;2024-03-07T08:32:51;101.30;;;45.05;;
21743;SDS011;11034;48.556;9.342;2024-03-07T08:35:21;107.25;;;46.53;;
21743;SDS011;11034;48.556;9.342;2024-03-07T08:37:50;101.88;;;45.38;;
21743;SDS011;11034;48.556;9.342;2024-03-07T08:40:21;99.78;;;47.47;;
21743;SDS011;11034;48.556;9.342;2024-03-07T08:42:55;97.10;;;46.10;;
21743;SDS011;11034;48.556;9.342;2024-03-07T08:45:25;95.68;;;44.33;;
21743;SDS011;11034;48.556;9.342;2024-03-07T08:47:54;99.18;;;46.30;;
21743;SDS011;11034;48.556;9.342;2024-03-07T08:50:25;101.95;;;46.67;;
21743;SDS011;11034;48.556;9.342;2024-03-07T08:52:55;102.05;;;46.65;;
21743;SDS011;11034;48.556;9.342;2024-03-07T08:55:24;97.72;;;45.70;;
21743;SDS011;11034;48.556;9.342;2024-03-07T08:57:53;93.05;;;44.53;;
21743;SDS011;11034;48.556;9.342;2024-03-07T09:00:22;95.85;;;44.90;;
21743;SDS011;11034;48.556;9.342;2024-03-07T09:02:54;84.53;;;43.35;;
21743;SDS011;11034;48.556;9.342;2024-03-07T09:05:27;84.97;;;42.00;;
21743;SDS011;11034;48.556;9.342;2024-03-07T09:07:56;86.72;;;42.92;;
21743;SDS011;11034;48.556;9.342;2024-03-07T09:10:25;88.18;;;44.75;;
21743;SDS011;11034;48.556;9.342;2024-03-07T09:12:56;92.75;;;44.55;;
21743;SDS011;11034;48.556;9.342;2024-03-07T09:15:27;95.72;;;47.80;;
21743;SDS011;11034;48.556;9.342;2024-03-07T09:17:56;95.95;;;47.53;;
21743;SDS011;11034;48.556;9.342;2024-03-07T09:20:25;93.47;;;46.38;;
21743;SDS011;11034;48.556;9.342;2024-03-07T09:22:54;90.57;;;45.90;;
21743;SDS011;11034;48.556;9.342;2024-03-07T09:25:22;98.32;;;48.22;;
21743;SDS011;11034;48.556;9.342;2024-03-07T09:27:53;95.32;;;45.92;;
21743;SDS011;11034;48.556;9.342;2024-03-07T09:30:22;89.75;;;44.78;;
21743;SDS011;11034;48.556;9.342;2024-03-07T09:32:53;94.28;;;46.15;;
21743;SDS011;11034;48.556;9.342;2024-03-07T09:35:24;96.45;;;46.22;;
21743;SDS011;11034;48.556;9.342;2024-03-07T09:37:53;92.85;;;45.95;;
21743;SDS011;11034;48.556;9.342;2024-03-07T09:40:22;89.50;;;46.10;;
21743;SDS011;11034;48.556;9.342;2024-03-07T09:42:53;84.47;;;42.83;;
21743;SDS011;11034;48.556;9.342;2024-03-07T09:45:28;81.47;;;42.50;;
21743;SDS011;11034;48.556;9.342;2024-03-07T09:47:58;78.82;;;43.90;;
21743;SDS011;11034;48.556;9.342;2024-03-07T09:50:29;82.63;;;42.80;;
21743;SDS011;11034;48.556;9.342;2024-03-07T09:52:59;79.68;;;43.03;;
21743;SDS011;11034;48.556;9.342;2024-03-07T09:55:31;85.00;;;43.08;;
21743;SDS011;11034;48.556;9.342;2024-03-07T09:58:00;80.90;;;42.58;;
21743;SDS011;11034;48.556;9.342;2024-03-07T10:00:29;78.72;;;40.65;;
21743;SDS011;11034;48.556;9.342;2024-03-07T10:03:01;78.72;;;41.50;;
21743;SDS011;11034;48.556;9.342;2024-03-07T10:05:34;83.78;;;42.85;;
21743;SDS011;11034;48.556;9.342;2024-03-07T10:08:04;77.72;;;41.38;;
21743;SDS011;11034;48.556;9.342;2024-03-07T10:10:34;81.85;;;42.80;;
21743;SDS011;11034;48.556;9.342;2024-03-07T10:13:03;74.97;;;39.60;;
21743;SDS011;11034;48.556;9.342;2024-03-07T10:15:32;70.05;;;36.83;;
21743;SDS011;11034;48.556;9.342;2024-03-07T10:18:01;70.40;;;34.75;;
21743;SDS011;11034;48.556;9.342;2024-03-07T10:20:30;70.13;;;37.17;;
21743;SDS011;11034;48.556;9.342;2024-03-07T10:23:00;74.68;;;38.85;;
21743;SDS011;11034;48.556;9.342;2024-03-07T10:25:28;73.47;;;38.78;;
21743;SDS011;11034;48.556;9.342;2024-03-07T10:27:56;81.68;;;39.50;;
21743;SDS011;11034;48.556;9.342;2024-03-07T10:30:25;72.90;;;36.45;;
21743;SDS011;11034;48.556;9.342;2024-03-07T10:32:55;69.22;;;35.10;;
21743;SDS011;11034;48.556;9.342;2024-03-07T10:35:27;71.25;;;35.15;;
21743;SDS011;11034;48.556;9.342;2024-03-07T10:37:57;76.40;;;37.00;;
21743;SDS011;11034;48.556;9.342;2024-03-07T10:40:33;62.60;;;33.55;;
21743;SDS011;11034;48.556;9.342;2024-03-07T10:43:04;64.00;;;31.98;;
21743;SDS011;11034;48.556;9.342;2024-03-07T10:45:37;60.35;;;31.20;;
21743;SDS011;11034;48.556;9.342;2024-03-07T10:48:11;60.65;;;30.70;;
21743;SDS011;11034;48.556;9.342;2024-03-07T10:50:43;63.92;;;31.50;;
21743;SDS011;11034;48.556;9.342;2024-03-07T10:53:20;60.30;;;30.33;;
21743;SDS011;11034;48.556;9.342;2024-03-07T10:55:56;55.78;;;29.85;;
21743;SDS011;11034;48.556;9.342;2024-03-07T10:58:44;49.05;;;27.63;;
21743;SDS011;11034;48.556;9.342;2024-03-07T11:01:20;50.10;;;27.65;;
21743;SDS011;11034;48.556;9.342;2024-03-07T11:03:51;51.05;;;27.88;;
21743;SDS011;11034;48.556;9.342;2024-03-07T11:06:25;49.95;;;28.00;;
21743;SDS011;11034;48.556;9.342;2024-03-07T11:08:54;50.35;;;27.63;;
21743;SDS011;11034;48.556;9.342;2024-03-07T11:11:23;53.40;;;28.83;;
21743;SDS011;11034;48.556;9.342;2024-03-07T11:13:52;53.40;;;28.20;;
21743;SDS011;11034;48.556;9.342;2024-03-07T11:16:21;56.60;;;29.73;;
21743;SDS011;11034;48.556;9.342;2024-03-07T11:21:47;49.90;;;27.00;;
21743;SDS011;11034;48.556;9.342;2024-03-07T11:24:23;49.00;;;26.50;;
21743;SDS011;11034;48.556;9.342;2024-03-07T11:26:52;48.20;;;27.65;;
21743;SDS011;11034;48.556;9.342;2024-03-07T11:29:40;49.35;;;25.65;;
21743;SDS011;11034;48.556;9.342;2024-03-07T11:32:21;51.70;;;26.95;;
21743;SDS011;11034;48.556;9.342;2024-03-07T11:34:53;50.63;;;27.90;;
21743;SDS011;11034;48.556;9.342;2024-03-07T11:37:37;49.05;;;27.17;;
21743;SDS011;11034;48.556;9.342;2024-03-07T11:40:12;49.70;;;26.98;;
21743;SDS011;11034;48.556;9.342;2024-03-07T11:42:48;53.03;;;27.92;;
21743;SDS011;11034;48.556;9.342;2024-03-07T11:45:18;53.03;;;28.33;;
21743;SDS011;11034;48.556;9.342;2024-03-07T11:47:52;54.78;;;29.67;;
21743;SDS011;11034;48.556;9.342;2024-03-07T11:50:26;57.97;;;28.05;;
21743;SDS011;11034;48.556;9.342;2024-03-07T11:52:55;55.38;;;28.58;;
21743;SDS011;11034;48.556;9.342;2024-03-07T11:55:25;49.30;;;27.42;;
21743;SDS011;11034;48.556;9.342;2024-03-07T11:57:56;50.92;;;28.70;;
21743;SDS011;11034;48.556;9.342;2024-03-07T12:00:25;52.17;;;28.15;;
21743;SDS011;11034;48.556;9.342;2024-03-07T12:03:00;51.30;;;26.80;;
21743;SDS011;11034;48.556;9.342;2024-03-07T12:05:32;51.95;;;28.27;;
21743;SDS011;11034;48.556;9.342;2024-03-07T12:08:01;70.65;;;34.03;;
21743;SDS011;11034;48.556;9.342;2024-03-07T12:10:33;63.72;;;32.95;;
21743;SDS011;11034;48.556;9.342;2024-03-07T12:13:03;61.40;;;32.50;;
21743;SDS011;11034;48.556;9.342;2024-03-07T12:15:31;69.20;;;34.20;;
21743;SDS011;11034;48.556;9.342;2024-03-07T12:18:01;64.68;;;33.95;;
21743;SDS011;11034;48.556;9.342;2024-03-07T12:20:36;63.03;;;34.05;;
21743;SDS011;11034;48.556;9.342;2024-03-07T12:23:05;67.88;;;35.65;;
21743;SDS011;11034;48.556;9.342;2024-03-07T12:25:36;65.25;;;35.65;;
21743;SDS011;11034;48.556;9.342;2024-03-07T12:28:06;64.15;;;34.75;;
21743;SDS011;11034;48.556;9.342;2024-03-07T12:30:48;67.07;;;35.63;;
21743;SDS011;11034;48.556;9.342;2024-03-07T12:33:17;67.35;;;36.35;;
21743;SDS011;11034;48.556;9.342;2024-03-07T12:35:47;64.47;;;35.97;;
21743;SDS011;11034;48.556;9.342;2024-03-07T12:38:16;64.00;;;35.22;;
21743;SDS011;11034;48.556;9.342;2024-03-07T12:40:46;68.90;;;35.38;;
21743;SDS011;11034;48.556;9.342;2024-03-07T12:43:15;66.45;;;35.85;;
21743;SDS011;11034;48.556;9.342;2024-03-07T12:45:45;68.00;;;37.33;;
21743;SDS011;11034;48.556;9.342;2024-03-07T12:48:16;66.30;;;35.17;;
21743;SDS011;11034;48.556;9.342;2024-03-07T12:50:46;70.20;;;37.65;;
21743;SDS011;11034;48.556;9.342;2024-03-07T12:53:20;63.53;;;35.45;;
21743;SDS011;11034;48.556;9.342;2024-03-07T12:55:50;63.55;;;35.85;;
21743;SDS011;11034;48.556;9.342;2024-03-07T12:58:18;60.53;;;34.88;;
21743;SDS011;11034;48.556;9.342;2024-03-07T13:00:48;65.95;;;35.33;;
21743;SDS011;11034;48.556;9.342;2024-03-07T13:03:17;63.88;;;36.08;;
21743;SDS011;11034;48.556;9.342;2024-03-07T13:05:46;66.82;;;36.20;;
21743;SDS011;11034;48.556;9.342;2024-03-07T13:08:15;65.68;;;35.80;;
21743;SDS011;11034;48.556;9.342;2024-03-07T13:10:44;60.22;;;34.85;;
21743;SDS011;11034;48.556;9.342;2024-03-07T13:13:17;64.28;;;35.53;;
21743;SDS011;11034;48.556;9.342;2024-03-07T13:15:47;59.90;;;34.65;;
21743;SDS011;11034;48.556;9.342;2024-03-07T13:18:15;59.08;;;34.60;;
21743;SDS011;11034;48.556;9.342;2024-03-07T13:20:44;59.55;;;34.08;;
21743;SDS011;11034;48.556;9.342;2024-03-07T13:23:13;57.17;;;33.92;;
21743;SDS011;11034;48.556;9.342;2024-03-07T13:25:42;56.70;;;34.15;;
21743;SDS011;11034;48.556;9.342;2024-03-07T13:28:11;57.63;;;34.92;;
21743;SDS011;11034;48.556;9.342;2024-03-07T13:30:44;61.25;;;35.30;;
21743;SDS011;11034;48.556;9.342;2024-03-07T13:33:15;56.83;;;35.00;;
21743;SDS011;11034;48.556;9.342;2024-03-07T13:35:44;57.00;;;34.90;;
21743;SDS011;11034;48.556;9.342;2024-03-07T13:38:13;59.67;;;34.53;;
21743;SDS011;11034;48.556;9.342;2024-03-07T13:40:42;55.55;;;33.17;;
21743;SDS011;11034;48.556;9.342;2024-03-07T13:43:10;55.25;;;34.22;;
21743;SDS011;11034;48.556;9.342;2024-03-07T13:45:38;57.45;;;34.75;;
21743;SDS011;11034;48.556;9.342;2024-03-07T13:48:10;52.65;;;31.73;;
21743;SDS011;11034;48.556;9.342;2024-03-07T13:50:40;56.40;;;29.98;;
21743;SDS011;11034;48.556;9.342;2024-03-07T13:53:24;50.75;;;29.60;;
21743;SDS011;11034;48.556;9.342;2024-03-07T13:56:07;46.85;;;29.08;;
21743;SDS011;11034;48.556;9.342;2024-03-07T14:02:09;48.53;;;29.15;;
21743;SDS011;11034;48.556;9.342;2024-03-07T14:08:22;50.10;;;30.85;;
21743;SDS011;11034;48.556;9.342;2024-03-07T14:14:28;49.53;;;29.05;;
21743;SDS011;11034;48.556;9.342;2024-03-07T14:20:35;49.80;;;30.88;;
21743;SDS011;11034;48.556;9.342;2024-03-07T14:23:41;50.42;;;31.60;;
21743;SDS011;11034;48.556;9.342;2024-03-07T14:26:41;56.10;;;33.08;;
21743;SDS011;11034;48.556;9.342;2024-03-07T14:29:22;51.13;;;30.65;;
21743;SDS011;11034;48.556;9.342;2024-03-07T14:31:56;55.72;;;31.38;;
21743;SDS011;11034;48.556;9.342;2024-03-07T14:34:29;54.88;;;31.67;;
21743;SDS011;11034;48.556;9.342;2024-03-07T14:37:09;50.70;;;30.50;;
21743;SDS011;11034;48.556;9.342;2024-03-07T14:39:48;52.70;;;30.30;;
21743;SDS011;11034;48.556;9.342;2024-03-07T14:42:18;52.92;;;31.85;;
21743;SDS011;11034;48.556;9.342;2024-03-07T14:44:47;54.42;;;31.42;;
21743;SDS011;11034;48.556;9.342;2024-03-07T14:47:17;51.97;;;30.73;;